sensor_id;sensor_type;location;lat;lon;timestamp;P1;durP1;ratioP1;P2;durP2;ratioP2
9667;SDS011;4872;48.316;10.650;2024-01-15T05:05:43;13.10;;;8.30;;
9667;SDS011;4872;48.316;10.650;2024-01-15T05:08:10;11.43;;;8.03;;
9667;SDS011;4872;48.316;10.650;2024-01-15T05:10:37;11.97;;;8.07;;
9667;SDS011;4872;48.316;10.650;2024-01-15T05:13:03;13.97;;;7.30;;
9667;SDS011;4872;48.316;10.650;2024-01-15T05:15:30;13.30;;;8.03;;
9667;SDS011;4872;48.316;10.650;2024-01-15T05:17:57;10.67;;;6.93;;
9667;SDS011;4872;48.316;10.650;2024-01-15T05:20:24;10.60;;;7.40;;
9667;SDS011;4872;48.316;10.650;2024-01-15T05:22:52;10.20;;;7.10;;
9667;SDS011;4872;48.316;10.650;2024-01-15T05:25:19;10.70;;;6.93;;
9667;SDS011;4872;48.316;10.650;2024-01-15T05:27:45;9.53;;;6.30;;
9667;SDS011;4872;48.316;10.650;2024-01-15T05:30:13;9.50;;;7.20;;
9667;SDS011;4872;48.316;10.650;2024-01-15T05:32:40;9.97;;;7.53;;
9667;SDS011;4872;48.316;10.650;2024-01-15T05:35:07;11.53;;;7.67;;
9667;SDS011;4872;48.316;10.650;2024-01-15T05:37:33;8.90;;;6.13;;
9667;SDS011;4872;48.316;10.650;2024-01-15T05:40:02;13.00;;;6.60;;
9667;SDS011;4872;48.316;10.650;2024-01-15T05:42:31;9.07;;;6.63;;
9667;SDS011;4872;48.316;10.650;2024-01-15T05:45:08;11.47;;;7.67;;
9667;SDS011;4872;48.316;10.650;2024-01-15T05:47:36;10.73;;;7.23;;
9667;SDS011;4872;48.316;10.650;2024-01-15T05:50:03;8.97;;;6.20;;
9667;SDS011;4872;48.316;10.650;2024-01-15T05:52:30;10.33;;;6.40;;
9667;SDS011;4872;48.316;10.650;2024-01-15T05:54:57;9.17;;;6.73;;
9667;SDS011;4872;48.316;10.650;2024-01-15T05:57:25;10.03;;;6.67;;
9667;SDS011;4872;48.316;10.650;2024-01-15T05:59:52;9.30;;;6.33;;
9667;SDS011;4872;48.316;10.650;2024-01-15T06:02:20;11.63;;;7.00;;
9667;SDS011;4872;48.316;10.650;2024-01-15T06:04:46;12.20;;;7.80;;
9667;SDS011;4872;48.316;10.650;2024-01-15T06:07:13;11.60;;;6.80;;
9667;SDS011;4872;48.316;10.650;2024-01-15T06:09:40;9.77;;;6.73;;
9667;SDS011;4872;48.316;10.650;2024-01-15T06:12:07;9.33;;;6.90;;
9667;SDS011;4872;48.316;10.650;2024-01-15T06:14:35;8.10;;;6.10;;
9667;SDS011;4872;48.316;10.650;2024-01-15T06:17:02;9.40;;;6.93;;
9667;SDS011;4872;48.316;10.650;2024-01-15T06:19:29;7.50;;;5.70;;
9667;SDS011;4872;48.316;10.650;2024-01-15T06:21:56;8.93;;;6.23;;
9667;SDS011;4872;48.316;10.650;2024-01-15T06:24:25;9.03;;;7.03;;
9667;SDS011;4872;48.316;10.650;2024-01-15T06:26:52;7.80;;;6.03;;
9667;SDS011;4872;48.316;10.650;2024-01-15T06:29:19;7.83;;;5.73;;
9667;SDS011;4872;48.316;10.650;2024-01-15T06:31:47;7.77;;;6.17;;
9667;SDS011;4872;48.316;10.650;2024-01-15T06:34:14;7.63;;;6.17;;
9667;SDS011;4872;48.316;10.650;2024-01-15T06:36:41;8.87;;;5.83;;
9667;SDS011;4872;48.316;10.650;2024-01-15T06:39:08;9.23;;;6.37;;
9667;SDS011;4872;48.316;10.650;2024-01-15T06:41:36;11.57;;;6.87;;
9667;SDS011;4872;48.316;10.650;2024-01-15T06:44:06;8.73;;;6.30;;
9667;SDS011;4872;48.316;10.650;2024-01-15T06:46:34;9.03;;;7.10;;
9667;SDS011;4872;48.316;10.650;2024-01-15T06:49:02;9.53;;;6.80;;
9667;SDS011;4872;48.316;10.650;2024-01-15T06:51:29;11.07;;;7.20;;
9667;SDS011;4872;48.316;10.650;2024-01-15T06:53:56;10.70;;;7.23;;
9667;SDS011;4872;48.316;10.650;2024-01-15T06:56:22;10.17;;;6.17;;
9667;SDS011;4872;48.316;10.650;2024-01-15T06:58:49;10.20;;;6.33;;
9667;SDS011;4872;48.316;10.650;2024-01-15T07:01:16;9.93;;;6.40;;
9667;SDS011;4872;48.316;10.650;2024-01-15T07:03:45;11.33;;;8.07;;
9667;SDS011;4872;48.316;10.650;2024-01-15T07:06:13;8.37;;;6.53;;
9667;SDS011;4872;48.316;10.650;2024-01-15T07:08:41;14.23;;;9.57;;
9667;SDS011;4872;48.316;10.650;2024-01-15T07:11:07;13.17;;;9.27;;
9667;SDS011;4872;48.316;10.650;2024-01-15T07:13:35;8.40;;;6.00;;
9667;SDS011;4872;48.316;10.650;2024-01-15T07:16:03;13.30;;;8.77;;
9667;SDS011;4872;48.316;10.650;2024-01-15T07:18:30;10.97;;;7.93;;
9667;SDS011;4872;48.316;10.650;2024-01-15T07:20:57;11.90;;;8.27;;
9667;SDS011;4872;48.316;10.650;2024-01-15T07:23:27;7.60;;;5.50;;
9667;SDS011;4872;48.316;10.650;2024-01-15T07:25:54;7.13;;;4.70;;
9667;SDS011;4872;48.316;10.650;2024-01-15T07:28:21;5.63;;;4.20;;
9667;SDS011;4872;48.316;10.650;2024-01-15T07:30:48;9.53;;;6.50;;
9667;SDS011;4872;48.316;10.650;2024-01-15T07:33:14;11.27;;;6.73;;
9667;SDS011;4872;48.316;10.650;2024-01-15T07:35:41;7.73;;;6.27;;
9667;SDS011;4872;48.316;10.650;2024-01-15T07:38:08;6.97;;;4.70;;
9667;SDS011;4872;48.316;10.650;2024-01-15T07:40:38;8.47;;;5.37;;
9667;SDS011;4872;48.316;10.650;2024-01-15T07:43:05;6.23;;;4.77;;
9667;SDS011;4872;48.316;10.650;2024-01-15T07:45:31;9.03;;;5.27;;
9667;SDS011;4872;48.316;10.650;2024-01-15T07:47:58;6.77;;;4.87;;
9667;SDS011;4872;48.316;10.650;2024-01-15T07:50:25;8.43;;;5.63;;
9667;SDS011;4872;48.316;10.650;2024-01-15T07:52:52;9.73;;;7.03;;
9667;SDS011;4872;48.316;10.650;2024-01-15T07:55:19;9.23;;;6.53;;
9667;SDS011;4872;48.316;10.650;2024-01-15T07:57:47;11.90;;;6.97;;
9667;SDS011;4872;48.316;10.650;2024-01-15T08:00:14;10.70;;;7.40;;
9667;SDS011;4872;48.316;10.650;2024-01-15T08:02:41;9.67;;;6.93;;
9667;SDS011;4872;48.316;10.650;2024-01-15T08:05:08;10.73;;;8.00;;
9667;SDS011;4872;48.316;10.650;2024-01-15T08:07:35;9.57;;;6.67;;
9667;SDS011;4872;48.316;10.650;2024-01-15T08:10:02;11.97;;;7.20;;
9667;SDS011;4872;48.316;10.650;2024-01-15T08:12:29;10.90;;;7.30;;
9667;SDS011;4872;48.316;10.650;2024-01-15T08:14:57;9.33;;;7.17;;
9667;SDS011;4872;48.316;10.650;2024-01-15T08:17:24;8.40;;;6.10;;
9667;SDS011;4872;48.316;10.650;2024-01-15T08:19:53;8.43;;;5.90;;
9667;SDS011;4872;48.316;10.650;2024-01-15T08:22:20;7.30;;;5.43;;
9667;SDS011;4872;48.316;10.650;2024-01-15T08:24:47;8.50;;;5.37;;
9667;SDS011;4872;48.316;10.650;2024-01-15T08:27:13;7.13;;;5.63;;
9667;SDS011;4872;48.316;10.650;2024-01-15T08:29:40;5.67;;;4.03;;
9667;SDS011;4872;48.316;10.650;2024-01-15T08:32:08;7.07;;;5.60;;
9667;SDS011;4872;48.316;10.650;2024-01-15T08:34:39;5.33;;;3.70;;
9667;SDS011;4872;48.316;10.650;2024-01-15T08:37:05;4.57;;;3.33;;
9667;SDS011;4872;48.316;10.650;2024-01-15T08:39:32;4.70;;;3.80;;
9667;SDS011;4872;48.316;10.650;2024-01-15T08:41:59;4.93;;;3.67;;
9667;SDS011;4872;48.316;10.650;2024-01-15T08:44:26;6.07;;;3.57;;
9667;SDS011;4872;48.316;10.650;2024-01-15T08:46:53;3.07;;;2.77;;
9667;SDS011;4872;48.316;10.650;2024-01-15T08:49:21;4.20;;;3.50;;
9667;SDS011;4872;48.316;10.650;2024-01-15T08:51:48;4.20;;;3.07;;
9667;SDS011;4872;48.316;10.650;2024-01-15T08:54:15;4.87;;;3.63;;
9667;SDS011;4872;48.316;10.650;2024-01-15T08:56:43;6.07;;;3.67;;
9667;SDS011;4872;48.316;10.650;2024-01-15T08:59:09;3.97;;;3.37;;
9667;SDS011;4872;48.316;10.650;2024-01-15T09:01:38;5.10;;;3.50;;
9667;SDS011;4872;48.316;10.650;2024-01-15T09:04:04;7.23;;;4.03;;
9667;SDS011;4872;48.316;10.650;2024-01-15T09:06:33;6.90;;;4.30;;
9667;SDS011;4872;48.316;10.650;2024-01-15T09:08:59;5.77;;;3.87;;
9667;SDS011;4872;48.316;10.650;2024-01-15T09:11:26;5.13;;;2.90;;
9667;SDS011;4872;48.316;10.650;2024-01-15T09:13:53;4.17;;;2.90;;
9667;SDS011;4872;48.316;10.650;2024-01-15T09:16:20;3.97;;;2.47;;
9667;SDS011;4872;48.316;10.650;2024-01-15T09:18:47;3.27;;;2.77;;
9667;SDS011;4872;48.316;10.650;2024-01-15T09:21:13;2.43;;;2.23;;
9667;SDS011;4872;48.316;10.650;2024-01-15T09:23:42;5.00;;;2.83;;
9667;SDS011;4872;48.316;10.650;2024-01-15T09:26:09;3.33;;;2.83;;
9667;SDS011;4872;48.316;10.650;2024-01-15T09:28:35;3.07;;;2.77;;
9667;SDS011;4872;48.316;10.650;2024-01-15T09:31:02;2.53;;;2.33;;
9667;SDS011;4872;48.316;10.650;2024-01-15T09:33:29;6.17;;;2.87;;
9667;SDS011;4872;48.316;10.650;2024-01-15T09:35:56;6.83;;;3.10;;
9667;SDS011;4872;48.316;10.650;2024-01-15T09:38:22;25.83;;;17.27;;
9667;SDS011;4872;48.316;10.650;2024-01-15T09:40:51;132.83;;;60.43;;
9667;SDS011;4872;48.316;10.650;2024-01-15T09:43:18;101.70;;;48.57;;
9667;SDS011;4872;48.316;10.650;2024-01-15T09:45:46;40.37;;;23.83;;
9667;SDS011;4872;48.316;10.650;2024-01-15T09:48:13;5.43;;;4.83;;
9667;SDS011;4872;48.316;10.650;2024-01-15T09:50:39;5.20;;;2.90;;
9667;SDS011;4872;48.316;10.650;2024-01-15T09:53:06;4.27;;;3.20;;
9667;SDS011;4872;48.316;10.650;2024-01-15T09:55:33;4.40;;;2.63;;
9667;SDS011;4872;48.316;10.650;2024-01-15T09:58:02;4.17;;;2.80;;
9667;SDS011;4872;48.316;10.650;2024-01-15T10:00:29;3.53;;;3.03;;
9667;SDS011;4872;48.316;10.650;2024-01-15T10:02:56;2.30;;;2.10;;
9667;SDS011;4872;48.316;10.650;2024-01-15T10:05:25;4.00;;;2.60;;
9667;SDS011;4872;48.316;10.650;2024-01-15T10:07:52;4.03;;;3.00;;
9667;SDS011;4872;48.316;10.650;2024-01-15T10:10:20;3.83;;;3.37;;
9667;SDS011;4872;48.316;10.650;2024-01-15T10:12:47;12.23;;;6.17;;
9667;SDS011;4872;48.316;10.650;2024-01-15T10:15:16;5.43;;;3.27;;
9667;SDS011;4872;48.316;10.650;2024-01-15T10:17:43;3.27;;;2.70;;
9667;SDS011;4872;48.316;10.650;2024-01-15T10:20:10;7.53;;;4.20;;
9667;SDS011;4872;48.316;10.650;2024-01-15T10:22:39;4.30;;;3.50;;
9667;SDS011;4872;48.316;10.650;2024-01-15T10:25:09;5.83;;;3.20;;
9667;SDS011;4872;48.316;10.650;2024-01-15T10:27:36;22.40;;;11.03;;
9667;SDS011;4872;48.316;10.650;2024-01-15T10:30:04;6.20;;;3.47;;
9667;SDS011;4872;48.316;10.650;2024-01-15T10:32:33;6.40;;;4.07;;
9667;SDS011;4872;48.316;10.650;2024-01-15T10:34:59;5.77;;;3.93;;
9667;SDS011;4872;48.316;10.650;2024-01-15T10:37:27;4.17;;;3.03;;
9667;SDS011;4872;48.316;10.650;2024-01-15T10:39:53;6.00;;;4.77;;
9667;SDS011;4872;48.316;10.650;2024-01-15T10:42:26;7.03;;;4.20;;
9667;SDS011;4872;48.316;10.650;2024-01-15T10:47:36;5.63;;;4.07;;
9667;SDS011;4872;48.316;10.650;2024-01-15T10:53:54;4.80;;;3.07;;
9667;SDS011;4872;48.316;10.650;2024-01-15T10:56:25;4.70;;;3.10;;
9667;SDS011;4872;48.316;10.650;2024-01-15T10:58:54;3.37;;;2.90;;
9667;SDS011;4872;48.316;10.650;2024-01-15T11:11:36;3.63;;;2.83;;
9667;SDS011;4872;48.316;10.650;2024-01-15T11:14:07;3.73;;;3.13;;
9667;SDS011;4872;48.316;10.650;2024-01-15T11:19:30;3.50;;;3.20;;
9667;SDS011;4872;48.316;10.650;2024-01-15T11:22:05;4.53;;;3.80;;
9667;SDS011;4872;48.316;10.650;2024-01-15T11:24:56;4.70;;;3.23;;
9667;SDS011;4872;48.316;10.650;2024-01-15T11:27:39;4.73;;;3.70;;
9667;SDS011;4872;48.316;10.650;2024-01-15T11:30:40;5.37;;;3.63;;
9667;SDS011;4872;48.316;10.650;2024-01-15T11:33:47;4.10;;;3.63;;
9667;SDS011;4872;48.316;10.650;2024-01-15T12:52:55;7.47;;;5.33;;
9667;SDS011;4872;48.316;10.650;2024-01-15T12:55:26;9.47;;;6.53;;
9667;SDS011;4872;48.316;10.650;2024-01-15T12:58:13;7.57;;;5.43;;
9667;SDS011;4872;48.316;10.650;2024-01-15T13:01:29;10.87;;;7.17;;
9667;SDS011;4872;48.316;10.650;2024-01-15T13:03:59;7.67;;;5.17;;
9667;SDS011;4872;48.316;10.650;2024-01-15T13:06:32;11.77;;;6.30;;
9667;SDS011;4872;48.316;10.650;2024-01-15T13:15:37;8.23;;;5.87;;
9667;SDS011;4872;48.316;10.650;2024-01-15T13:18:12;10.63;;;7.10;;
9667;SDS011;4872;48.316;10.650;2024-01-15T13:23:56;9.10;;;6.37;;
9667;SDS011;4872;48.316;10.650;2024-01-15T13:26:24;7.47;;;6.13;;
9667;SDS011;4872;48.316;10.650;2024-01-15T13:28:51;9.87;;;7.13;;
9667;SDS011;4872;48.316;10.650;2024-01-15T13:31:20;11.50;;;7.23;;
9667;SDS011;4872;48.316;10.650;2024-01-15T13:34:13;8.93;;;6.37;;
9667;SDS011;4872;48.316;10.650;2024-01-15T13:37:07;9.43;;;7.30;;
9667;SDS011;4872;48.316;10.650;2024-01-15T13:52:49;9.63;;;6.83;;
9667;SDS011;4872;48.316;10.650;2024-01-15T13:55:16;6.40;;;5.00;;
9667;SDS011;4872;48.316;10.650;2024-01-15T13:57:48;10.10;;;6.43;;
9667;SDS011;4872;48.316;10.650;2024-01-15T14:00:34;11.40;;;7.73;;
9667;SDS011;4872;48.316;10.650;2024-01-15T14:03:04;9.57;;;7.10;;
9667;SDS011;4872;48.316;10.650;2024-01-15T14:05:43;10.37;;;7.50;;
9667;SDS011;4872;48.316;10.650;2024-01-15T14:11:44;10.50;;;6.63;;
9667;SDS011;4872;48.316;10.650;2024-01-15T14:14:16;10.53;;;7.03;;
9667;SDS011;4872;48.316;10.650;2024-01-15T14:16:43;12.03;;;7.23;;
9667;SDS011;4872;48.316;10.650;2024-01-15T14:19:57;9.60;;;6.67;;
9667;SDS011;4872;48.316;10.650;2024-01-15T14:25:28;11.83;;;8.07;;
9667;SDS011;4872;48.316;10.650;2024-01-15T14:28:00;12.97;;;8.47;;
9667;SDS011;4872;48.316;10.650;2024-01-15T14:30:27;14.37;;;10.90;;
9667;SDS011;4872;48.316;10.650;2024-01-15T14:32:54;26.83;;;16.03;;
9667;SDS011;4872;48.316;10.650;2024-01-15T14:35:20;12.30;;;7.53;;
9667;SDS011;4872;48.316;10.650;2024-01-15T14:37:51;12.57;;;7.97;;
9667;SDS011;4872;48.316;10.650;2024-01-15T14:40:34;11.30;;;7.73;;
9667;SDS011;4872;48.316;10.650;2024-01-15T14:43:16;23.00;;;13.70;;
9667;SDS011;4872;48.316;10.650;2024-01-15T14:45:43;12.17;;;8.60;;
9667;SDS011;4872;48.316;10.650;2024-01-15T14:48:22;12.73;;;8.23;;
9667;SDS011;4872;48.316;10.650;2024-01-15T14:50:50;10.03;;;7.00;;
9667;SDS011;4872;48.316;10.650;2024-01-15T14:53:23;11.37;;;8.60;;
9667;SDS011;4872;48.316;10.650;2024-01-15T14:56:13;11.63;;;8.97;;
9667;SDS011;4872;48.316;10.650;2024-01-15T14:58:50;14.63;;;8.43;;
9667;SDS011;4872;48.316;10.650;2024-01-15T15:01:17;14.50;;;8.37;;
9667;SDS011;4872;48.316;10.650;2024-01-15T15:03:45;14.80;;;8.17;;
9667;SDS011;4872;48.316;10.650;2024-01-15T15:09:31;12.37;;;8.27;;
9667;SDS011;4872;48.316;10.650;2024-01-15T15:12:18;12.23;;;9.03;;
9667;SDS011;4872;48.316;10.650;2024-01-15T15:14:51;14.87;;;9.67;;
9667;SDS011;4872;48.316;10.650;2024-01-15T15:17:26;15.37;;;9.53;;
9667;SDS011;4872;48.316;10.650;2024-01-15T15:26:24;20.33;;;12.63;;
9667;SDS011;4872;48.316;10.650;2024-01-15T15:28:57;16.10;;;10.83;;
9667;SDS011;4872;48.316;10.650;2024-01-15T15:50:07;8.37;;;6.43;;
9667;SDS011;4872;48.316;10.650;2024-01-15T16:02:03;9.43;;;6.30;;
9667;SDS011;4872;48.316;10.650;2024-01-15T16:04:43;8.57;;;6.03;;
9667;SDS011;4872;48.316;10.650;2024-01-15T16:11:04;8.63;;;5.73;;
9667;SDS011;4872;48.316;10.650;2024-01-15T16:13:32;6.90;;;5.53;;
9667;SDS011;4872;48.316;10.650;2024-01-15T16:15:59;7.40;;;6.03;;
9667;SDS011;4872;48.316;10.650;2024-01-15T16:18:26;8.20;;;6.27;;
9667;SDS011;4872;48.316;10.650;2024-01-15T16:20:53;7.23;;;5.20;;
9667;SDS011;4872;48.316;10.650;2024-01-15T16:23:19;11.90;;;7.17;;
9667;SDS011;4872;48.316;10.650;2024-01-15T16:25:46;14.33;;;9.43;;
9667;SDS011;4872;48.316;10.650;2024-01-15T16:28:15;10.43;;;7.43;;
9667;SDS011;4872;48.316;10.650;2024-01-15T16:30:41;6.90;;;6.10;;
9667;SDS011;4872;48.316;10.650;2024-01-15T16:33:08;7.70;;;6.37;;
9667;SDS011;4872;48.316;10.650;2024-01-15T16:35:35;7.10;;;5.17;;
9667;SDS011;4872;48.316;10.650;2024-01-15T16:38:02;9.10;;;5.63;;
9667;SDS011;4872;48.316;10.650;2024-01-15T16:40:29;10.53;;;7.33;;
9667;SDS011;4872;48.316;10.650;2024-01-15T16:42:55;5.17;;;4.40;;
9667;SDS011;4872;48.316;10.650;2024-01-15T16:45:24;4.50;;;3.73;;
9667;SDS011;4872;48.316;10.650;2024-01-15T16:47:51;3.67;;;3.27;;
9667;SDS011;4872;48.316;10.650;2024-01-15T16:50:17;8.00;;;5.70;;
9667;SDS011;4872;48.316;10.650;2024-01-15T16:52:44;5.53;;;4.23;;
9667;SDS011;4872;48.316;10.650;2024-01-15T16:55:11;10.83;;;6.67;;
9667;SDS011;4872;48.316;10.650;2024-01-15T16:57:38;8.20;;;6.53;;
9667;SDS011;4872;48.316;10.650;2024-01-15T17:00:06;7.63;;;6.70;;
9667;SDS011;4872;48.316;10.650;2024-01-15T17:02:35;11.73;;;8.20;;
9667;SDS011;4872;48.316;10.650;2024-01-15T17:05:02;13.43;;;7.57;;
9667;SDS011;4872;48.316;10.650;2024-01-15T17:07:29;10.03;;;7.47;;
9667;SDS011;4872;48.316;10.650;2024-01-15T17:09:56;10.87;;;7.93;;
9667;SDS011;4872;48.316;10.650;2024-01-15T17:12:24;6.83;;;5.93;;
9667;SDS011;4872;48.316;10.650;2024-01-15T17:14:50;7.93;;;7.00;;
9667;SDS011;4872;48.316;10.650;2024-01-15T17:17:17;6.97;;;6.07;;
9667;SDS011;4872;48.316;10.650;2024-01-15T17:19:48;6.97;;;6.10;;
9667;SDS011;4872;48.316;10.650;2024-01-15T17:22:15;11.27;;;7.80;;
9667;SDS011;4872;48.316;10.650;2024-01-15T17:24:42;10.17;;;8.10;;
9667;SDS011;4872;48.316;10.650;2024-01-15T17:27:09;14.43;;;9.97;;
9667;SDS011;4872;48.316;10.650;2024-01-15T17:29:36;11.60;;;9.23;;
9667;SDS011;4872;48.316;10.650;2024-01-15T17:32:03;11.23;;;9.00;;
9667;SDS011;4872;48.316;10.650;2024-01-15T17:34:31;9.40;;;7.67;;
9667;SDS011;4872;48.316;10.650;2024-01-15T17:36:59;8.50;;;6.43;;
9667;SDS011;4872;48.316;10.650;2024-01-15T17:39:26;7.00;;;5.50;;
9667;SDS011;4872;48.316;10.650;2024-01-15T17:41:53;7.37;;;4.97;;
9667;SDS011;4872;48.316;10.650;2024-01-15T17:44:19;6.93;;;5.57;;
9667;SDS011;4872;48.316;10.650;2024-01-15T17:46:49;6.47;;;5.37;;
9667;SDS011;4872;48.316;10.650;2024-01-15T17:49:16;8.63;;;5.60;;
9667;SDS011;4872;48.316;10.650;2024-01-15T17:51:43;8.07;;;5.93;;
9667;SDS011;4872;48.316;10.650;2024-01-15T17:54:11;6.67;;;5.47;;
9667;SDS011;4872;48.316;10.650;2024-01-15T17:56:38;6.53;;;5.00;;
9667;SDS011;4872;48.316;10.650;2024-01-15T17:59:04;5.70;;;5.00;;
9667;SDS011;4872;48.316;10.650;2024-01-15T18:01:31;6.70;;;5.23;;
9667;SDS011;4872;48.316;10.650;2024-01-15T18:04:00;6.80;;;4.57;;
9667;SDS011;4872;48.316;10.650;2024-01-15T18:06:28;4.80;;;4.00;;
9667;SDS011;4872;48.316;10.650;2024-01-15T18:08:55;5.73;;;4.50;;
9667;SDS011;4872;48.316;10.650;2024-01-15T18:11:23;6.93;;;4.47;;
9667;SDS011;4872;48.316;10.650;2024-01-15T18:13:50;6.03;;;5.37;;
9667;SDS011;4872;48.316;10.650;2024-01-15T18:16:17;5.37;;;4.87;;
9667;SDS011;4872;48.316;10.650;2024-01-15T18:18:47;5.50;;;4.80;;
9667;SDS011;4872;48.316;10.650;2024-01-15T18:21:16;5.13;;;4.63;;
9667;SDS011;4872;48.316;10.650;2024-01-15T18:23:44;5.20;;;4.70;;
9667;SDS011;4872;48.316;10.650;2024-01-15T18:26:10;7.23;;;4.93;;
9667;SDS011;4872;48.316;10.650;2024-01-15T18:28:38;6.43;;;4.93;;
9667;SDS011;4872;48.316;10.650;2024-01-15T18:31:05;5.93;;;4.80;;
9667;SDS011;4872;48.316;10.650;2024-01-15T18:33:32;9.37;;;6.00;;
9667;SDS011;4872;48.316;10.650;2024-01-15T18:36:00;13.00;;;7.40;;
9667;SDS011;4872;48.316;10.650;2024-01-15T18:38:28;5.57;;;4.60;;
9667;SDS011;4872;48.316;10.650;2024-01-15T18:40:55;11.40;;;5.43;;
9667;SDS011;4872;48.316;10.650;2024-01-15T18:43:22;6.67;;;4.53;;
9667;SDS011;4872;48.316;10.650;2024-01-15T18:45:50;6.30;;;4.67;;
9667;SDS011;4872;48.316;10.650;2024-01-15T18:48:17;5.33;;;4.67;;
9667;SDS011;4872;48.316;10.650;2024-01-15T18:50:44;5.97;;;5.33;;
9667;SDS011;4872;48.316;10.650;2024-01-15T18:53:11;6.80;;;5.27;;
9667;SDS011;4872;48.316;10.650;2024-01-15T18:55:39;7.37;;;5.37;;
9667;SDS011;4872;48.316;10.650;2024-01-15T18:58:05;11.23;;;8.90;;
9667;SDS011;4872;48.316;10.650;2024-01-15T19:00:32;11.43;;;9.97;;
9667;SDS011;4872;48.316;10.650;2024-01-15T19:03:00;7.20;;;6.40;;
9667;SDS011;4872;48.316;10.650;2024-01-15T19:05:27;6.10;;;5.17;;
9667;SDS011;4872;48.316;10.650;2024-01-15T19:07:55;7.47;;;5.20;;
9667;SDS011;4872;48.316;10.650;2024-01-15T19:10:24;5.57;;;4.83;;
9667;SDS011;4872;48.316;10.650;2024-01-15T19:12:51;5.10;;;4.60;;
9667;SDS011;4872;48.316;10.650;2024-01-15T19:15:18;7.00;;;4.63;;
9667;SDS011;4872;48.316;10.650;2024-01-15T19:17:45;5.17;;;4.50;;
9667;SDS011;4872;48.316;10.650;2024-01-15T19:20:15;7.27;;;4.67;;
9667;SDS011;4872;48.316;10.650;2024-01-15T19:22:45;5.10;;;4.30;;
9667;SDS011;4872;48.316;10.650;2024-01-15T19:25:13;5.73;;;4.93;;
9667;SDS011;4872;48.316;10.650;2024-01-15T19:27:39;5.37;;;4.87;;
9667;SDS011;4872;48.316;10.650;2024-01-15T19:30:10;5.80;;;4.60;;
9667;SDS011;4872;48.316;10.650;2024-01-15T19:32:38;8.03;;;4.83;;
9667;SDS011;4872;48.316;10.650;2024-01-15T19:35:06;9.73;;;6.10;;
9667;SDS011;4872;48.316;10.650;2024-01-15T19:37:34;11.07;;;6.93;;
9667;SDS011;4872;48.316;10.650;2024-01-15T19:40:01;6.20;;;5.17;;
9667;SDS011;4872;48.316;10.650;2024-01-15T19:42:28;6.80;;;4.83;;
9667;SDS011;4872;48.316;10.650;2024-01-15T19:44:55;7.50;;;5.30;;
9667;SDS011;4872;48.316;10.650;2024-01-15T19:47:23;6.27;;;4.90;;
9667;SDS011;4872;48.316;10.650;2024-01-15T19:49:50;5.53;;;4.83;;
9667;SDS011;4872;48.316;10.650;2024-01-15T19:52:17;6.47;;;5.53;;
9667;SDS011;4872;48.316;10.650;2024-01-15T19:54:45;6.50;;;5.67;;
9667;SDS011;4872;48.316;10.650;2024-01-15T19:57:20;7.07;;;5.03;;
9667;SDS011;4872;48.316;10.650;2024-01-15T19:59:47;4.83;;;4.33;;
9667;SDS011;4872;48.316;10.650;2024-01-15T20:02:14;12.03;;;8.20;;
9667;SDS011;4872;48.316;10.650;2024-01-15T20:04:40;11.90;;;7.53;;
9667;SDS011;4872;48.316;10.650;2024-01-15T20:07:07;8.70;;;6.90;;
9667;SDS011;4872;48.316;10.650;2024-01-15T20:09:35;10.70;;;6.43;;
9667;SDS011;4872;48.316;10.650;2024-01-15T20:12:03;7.60;;;6.03;;
9667;SDS011;4872;48.316;10.650;2024-01-15T20:14:32;8.13;;;6.07;;
9667;SDS011;4872;48.316;10.650;2024-01-15T20:17:00;6.70;;;5.87;;
9667;SDS011;4872;48.316;10.650;2024-01-15T20:19:29;9.00;;;6.40;;
9667;SDS011;4872;48.316;10.650;2024-01-15T20:21:56;8.57;;;6.00;;
9667;SDS011;4872;48.316;10.650;2024-01-15T20:24:23;8.73;;;6.00;;
9667;SDS011;4872;48.316;10.650;2024-01-15T20:26:50;7.50;;;5.90;;
9667;SDS011;4872;48.316;10.650;2024-01-15T20:29:19;6.43;;;5.67;;
9667;SDS011;4872;48.316;10.650;2024-01-15T20:31:46;6.03;;;5.43;;
9667;SDS011;4872;48.316;10.650;2024-01-15T20:34:13;6.97;;;5.43;;
9667;SDS011;4872;48.316;10.650;2024-01-15T20:36:40;7.43;;;5.23;;
9667;SDS011;4872;48.316;10.650;2024-01-15T20:39:07;6.63;;;4.80;;
9667;SDS011;4872;48.316;10.650;2024-01-15T20:41:34;5.80;;;4.97;;
9667;SDS011;4872;48.316;10.650;2024-01-15T20:44:01;6.53;;;5.40;;
9667;SDS011;4872;48.316;10.650;2024-01-15T20:46:31;7.77;;;5.00;;
9667;SDS011;4872;48.316;10.650;2024-01-15T20:48:58;7.03;;;4.70;;
9667;SDS011;4872;48.316;10.650;2024-01-15T20:51:25;5.37;;;4.87;;
9667;SDS011;4872;48.316;10.650;2024-01-15T20:53:51;7.03;;;5.10;;
9667;SDS011;4872;48.316;10.650;2024-01-15T20:56:18;7.80;;;6.30;;
9667;SDS011;4872;48.316;10.650;2024-01-15T20:58:45;6.17;;;5.00;;
9667;SDS011;4872;48.316;10.650;2024-01-15T21:01:12;8.07;;;5.67;;
9667;SDS011;4872;48.316;10.650;2024-01-15T21:03:40;4.50;;;4.10;;
9667;SDS011;4872;48.316;10.650;2024-01-15T21:06:07;5.97;;;5.43;;
9667;SDS011;4872;48.316;10.650;2024-01-15T21:08:34;5.07;;;4.33;;
9667;SDS011;4872;48.316;10.650;2024-01-15T21:11:01;7.63;;;4.73;;
9667;SDS011;4872;48.316;10.650;2024-01-15T21:13:28;6.17;;;4.50;;
9667;SDS011;4872;48.316;10.650;2024-01-15T21:15:55;6.80;;;4.43;;
9667;SDS011;4872;48.316;10.650;2024-01-15T21:18:25;4.30;;;3.87;;
9667;SDS011;4872;48.316;10.650;2024-01-15T21:20:53;5.07;;;4.43;;
9667;SDS011;4872;48.316;10.650;2024-01-15T21:23:20;4.40;;;4.03;;
9667;SDS011;4872;48.316;10.650;2024-01-15T21:25:47;7.80;;;6.70;;
9667;SDS011;4872;48.316;10.650;2024-01-15T21:28:14;7.77;;;6.27;;
9667;SDS011;4872;48.316;10.650;2024-01-15T21:30:41;5.57;;;4.10;;
9667;SDS011;4872;48.316;10.650;2024-01-15T21:33:08;10.87;;;8.17;;
9667;SDS011;4872;48.316;10.650;2024-01-15T21:35:36;4.37;;;3.87;;
9667;SDS011;4872;48.316;10.650;2024-01-15T21:38:04;6.83;;;4.70;;
9667;SDS011;4872;48.316;10.650;2024-01-15T21:40:31;5.23;;;4.10;;
9667;SDS011;4872;48.316;10.650;2024-01-15T21:42:58;4.83;;;3.80;;
9667;SDS011;4872;48.316;10.650;2024-01-15T21:45:25;6.67;;;5.10;;
9667;SDS011;4872;48.316;10.650;2024-01-15T21:47:52;5.03;;;4.03;;
9667;SDS011;4872;48.316;10.650;2024-01-15T21:50:19;3.83;;;3.40;;
9667;SDS011;4872;48.316;10.650;2024-01-15T21:52:46;6.57;;;4.00;;
9667;SDS011;4872;48.316;10.650;2024-01-15T21:55:14;3.77;;;3.43;;
9667;SDS011;4872;48.316;10.650;2024-01-15T21:57:42;4.20;;;3.80;;
9667;SDS011;4872;48.316;10.650;2024-01-15T22:00:12;5.57;;;5.03;;
9667;SDS011;4872;48.316;10.650;2024-01-15T22:02:40;6.87;;;4.70;;
9667;SDS011;4872;48.316;10.650;2024-01-15T22:05:10;4.83;;;3.70;;
9667;SDS011;4872;48.316;10.650;2024-01-15T22:07:39;4.17;;;3.77;;
9667;SDS011;4872;48.316;10.650;2024-01-15T22:10:08;5.57;;;4.37;;
9667;SDS011;4872;48.316;10.650;2024-01-15T22:12:37;5.23;;;3.90;;
9667;SDS011;4872;48.316;10.650;2024-01-15T22:15:04;4.67;;;3.60;;
9667;SDS011;4872;48.316;10.650;2024-01-15T22:17:32;5.17;;;4.00;;
9667;SDS011;4872;48.316;10.650;2024-01-15T22:19:58;4.37;;;3.57;;
9667;SDS011;4872;48.316;10.650;2024-01-15T22:22:25;5.23;;;4.27;;
9667;SDS011;4872;48.316;10.650;2024-01-15T22:24:52;6.40;;;4.23;;
9667;SDS011;4872;48.316;10.650;2024-01-15T22:27:19;5.00;;;3.60;;
9667;SDS011;4872;48.316;10.650;2024-01-15T22:29:47;4.43;;;4.03;;
9667;SDS011;4872;48.316;10.650;2024-01-15T22:32:15;5.00;;;3.90;;
9667;SDS011;4872;48.316;10.650;2024-01-15T22:34:43;5.50;;;3.90;;
9667;SDS011;4872;48.316;10.650;2024-01-15T22:37:10;5.13;;;3.90;;
9667;SDS011;4872;48.316;10.650;2024-01-15T22:39:36;5.80;;;4.47;;
9667;SDS011;4872;48.316;10.650;2024-01-15T22:42:03;5.17;;;4.30;;
9667;SDS011;4872;48.316;10.650;2024-01-15T22:44:30;6.67;;;4.77;;
9667;SDS011;4872;48.316;10.650;2024-01-15T22:46:58;5.10;;;3.37;;
9667;SDS011;4872;48.316;10.650;2024-01-15T22:49:25;4.70;;;3.73;;
9667;SDS011;4872;48.316;10.650;2024-01-15T22:51:52;4.07;;;3.30;;
9667;SDS011;4872;48.316;10.650;2024-01-15T22:54:19;6.63;;;4.13;;
9667;SDS011;4872;48.316;10.650;2024-01-15T22:56:46;3.80;;;3.13;;
9667;SDS011;4872;48.316;10.650;2024-01-15T22:59:12;5.53;;;3.70;;